createdAt,value
2023-03-16T00:00:27.845Z,80.90
2023-03-16T00:02:59.933Z,81.60
2023-03-16T00:05:32.176Z,82.40
2023-03-16T00:08:04.718Z,82.40
2023-03-16T00:10:36.684Z,81.60
2023-03-16T00:13:08.615Z,80.80
2023-03-16T00:15:40.888Z,82.50
2023-03-16T00:18:12.704Z,81.30
2023-03-16T00:20:44.603Z,81.60
2023-03-16T00:23:16.423Z,82.70
2023-03-16T00:25:48.247Z,83.10
2023-03-16T00:28:20.058Z,84.20
2023-03-16T00:30:52.264Z,83.90
2023-03-16T00:33:24.066Z,83.30
2023-03-16T00:36:02.354Z,83.60
2023-03-16T00:38:36.615Z,83.20
2023-03-16T00:41:09.254Z,84.00
2023-03-16T00:43:44.501Z,83.80
2023-03-16T00:46:17.814Z,83.40
2023-03-16T00:48:49.690Z,82.80
2023-03-16T00:51:22.963Z,82.70
2023-03-16T00:53:56.215Z,82.60
2023-03-16T00:56:29.080Z,82.60
2023-03-16T00:59:01.003Z,82.50
2023-03-16T01:01:32.945Z,82.60
2023-03-16T01:04:04.946Z,83.60
2023-03-16T01:06:39.960Z,84.00
2023-03-16T01:09:12.515Z,84.60
2023-03-16T01:11:45.048Z,84.20
2023-03-16T01:14:17.088Z,83.80
2023-03-16T01:16:48.994Z,84.70
2023-03-16T01:19:22.863Z,83.90
2023-03-16T01:21:54.982Z,84.70
2023-03-16T01:24:26.761Z,84.20
2023-03-16T01:26:58.730Z,83.60
2023-03-16T01:29:32.519Z,83.80
2023-03-16T01:32:05.282Z,83.90
2023-03-16T01:34:37.550Z,82.80
2023-03-16T01:37:11.416Z,82.80
2023-03-16T01:39:54.306Z,83.20
2023-03-16T01:42:26.254Z,82.70
2023-03-16T01:45:05.640Z,83.20
2023-03-16T01:47:43.070Z,83.70
2023-03-16T01:50:18.712Z,84.00
2023-03-16T01:52:51.100Z,83.20
2023-03-16T01:55:23.248Z,82.50
2023-03-16T01:57:55.821Z,82.00
2023-03-16T02:00:31.675Z,81.90
2023-03-16T02:03:19.691Z,82.20
2023-03-16T02:06:23.257Z,82.50
2023-03-16T02:09:01.643Z,83.30
2023-03-16T02:11:34.880Z,83.20
2023-03-16T02:14:12.967Z,83.50
2023-03-16T02:16:47.507Z,84.20
2023-03-16T02:19:32.011Z,82.60
2023-03-16T02:22:07.407Z,83.10
2023-03-16T02:24:39.487Z,82.90
2023-03-16T02:27:17.802Z,83.00
2023-03-16T02:29:54.129Z,83.00
2023-03-16T02:32:29.507Z,82.80
2023-03-16T02:35:02.496Z,82.40
2023-03-16T02:37:35.073Z,81.80
2023-03-16T02:40:44.976Z,81.30
2023-03-16T02:43:22.426Z,81.70
2023-03-16T02:46:07.508Z,82.50
2023-03-16T02:49:16.364Z,81.70
2023-03-16T02:51:48.612Z,81.40
2023-03-16T02:54:20.826Z,81.60
2023-03-16T02:56:52.643Z,81.60
2023-03-16T02:59:26.353Z,81.50
2023-03-16T03:01:58.557Z,81.80
2023-03-16T03:04:33.139Z,82.20
2023-03-16T03:07:05.506Z,82.60
2023-03-16T03:09:49.326Z,83.30
2023-03-16T03:12:21.127Z,82.40
2023-03-16T03:14:53.055Z,82.30
2023-03-16T03:17:30.266Z,82.20
2023-03-16T03:20:06.666Z,83.20
2023-03-16T03:22:38.517Z,82.90
2023-03-16T03:25:11.001Z,82.80
2023-03-16T03:27:44.274Z,82.60
2023-03-16T03:30:20.920Z,82.10
2023-03-16T03:32:53.209Z,82.30
2023-03-16T03:35:26.426Z,82.60
2023-03-16T03:37:59.267Z,82.80
2023-03-16T03:40:31.363Z,82.90
2023-03-16T03:43:07.106Z,83.30
2023-03-16T03:45:44.345Z,82.90
2023-03-16T03:48:16.238Z,82.90
2023-03-16T03:50:48.175Z,83.30
2023-03-16T03:53:38.644Z,83.40
2023-03-16T03:56:34.614Z,83.60
2023-03-16T03:59:06.453Z,84.80
2023-03-16T04:02:04.639Z,84.30
2023-03-16T04:04:53.857Z,85.40
2023-03-16T04:07:25.740Z,85.10
2023-03-16T04:10:02.492Z,85.20
2023-03-16T04:12:40.197Z,85.10
2023-03-16T04:15:14.800Z,84.90
2023-03-16T04:18:09.773Z,85.60
2023-03-16T04:20:42.151Z,86.60
2023-03-16T04:23:16.711Z,86.30
2023-03-16T04:25:49.983Z,85.40
2023-03-16T04:28:26.358Z,85.70
2023-03-16T04:31:02.637Z,86.10
2023-03-16T04:33:40.473Z,86.30
2023-03-16T04:36:12.503Z,86.90
2023-03-16T04:38:45.257Z,87.10
2023-03-16T04:41:18.514Z,87.30
2023-03-16T04:43:59.299Z,87.50
2023-03-16T04:46:32.451Z,88.30
2023-03-16T04:49:09.724Z,87.60
2023-03-16T04:51:42.648Z,87.80
2023-03-16T04:54:18.902Z,88.20
2023-03-16T04:56:52.384Z,88.70
2023-03-16T04:59:42.368Z,89.30
2023-03-16T05:02:25.548Z,89.80
2023-03-16T05:04:57.621Z,89.30
2023-03-16T05:07:29.952Z,89.60
2023-03-16T05:10:04.106Z,89.80
2023-03-16T05:12:36.127Z,90.00
2023-03-16T05:15:11.489Z,90.10
2023-03-16T05:17:48.099Z,89.90
2023-03-16T05:20:21.894Z,89.30
2023-03-16T05:22:57.543Z,89.40
2023-03-16T05:25:33.124Z,89.40
2023-03-16T05:28:08.809Z,89.80
2023-03-16T05:30:53.005Z,90.20
2023-03-16T05:33:29.790Z,90.20
2023-03-16T05:36:08.530Z,90.30
2023-03-16T05:38:42.912Z,90.30
2023-03-16T05:41:18.500Z,90.40
2023-03-16T05:44:01.484Z,90.70
2023-03-16T05:46:45.771Z,90.70
2023-03-16T05:49:18.022Z,90.90
2023-03-16T05:51:50.387Z,90.80
2023-03-16T05:54:23.031Z,90.80
2023-03-16T05:56:54.895Z,90.70
2023-03-16T05:59:27.236Z,90.80
2023-03-16T06:02:02.146Z,90.80
2023-03-16T06:04:34.343Z,90.70
2023-03-16T06:07:06.542Z,90.50
2023-03-16T06:09:39.258Z,90.20
2023-03-16T06:12:16.646Z,89.40
2023-03-16T06:14:49.119Z,89.50
2023-03-16T06:17:21.580Z,89.50
2023-03-16T06:19:59.767Z,89.10
2023-03-16T06:22:33.178Z,88.80
2023-03-16T06:25:10.073Z,89.50
2023-03-16T06:27:42.682Z,89.60
2023-03-16T06:30:18.109Z,92.20
2023-03-16T06:32:49.996Z,89.00
2023-03-16T06:35:21.848Z,88.40
2023-03-16T06:38:08.839Z,88.20
2023-03-16T06:41:10.015Z,88.00
2023-03-16T06:43:42.587Z,86.70
2023-03-16T06:46:16.078Z,85.20
2023-03-16T06:48:48.650Z,84.00
2023-03-16T06:51:20.603Z,84.30
2023-03-16T06:53:53.532Z,82.90
2023-03-16T06:56:31.841Z,82.30
2023-03-16T06:59:03.863Z,81.70
2023-03-16T07:01:35.905Z,80.90
2023-03-16T07:04:08.266Z,81.30
2023-03-16T07:06:40.370Z,81.30
2023-03-16T07:09:12.574Z,81.00
2023-03-16T07:11:44.889Z,81.70
2023-03-16T07:14:17.677Z,82.40
2023-03-16T07:16:50.027Z,82.90
2023-03-16T07:19:22.852Z,84.10
2023-03-16T07:21:55.164Z,84.40
2023-03-16T07:24:29.153Z,85.10
2023-03-16T07:27:01.926Z,85.40
2023-03-16T07:29:36.662Z,85.70
2023-03-16T07:32:09.895Z,86.70
2023-03-16T07:34:43.715Z,86.70
2023-03-16T07:37:18.355Z,87.30
2023-03-16T07:39:54.068Z,87.60
2023-03-16T07:42:25.964Z,88.20
2023-03-16T07:45:06.779Z,88.20
2023-03-16T07:47:38.748Z,88.90
2023-03-16T07:50:22.310Z,89.20
2023-03-16T07:52:54.851Z,88.60
2023-03-16T07:55:26.810Z,88.90
2023-03-16T07:57:59.774Z,90.50
2023-03-16T08:00:37.593Z,88.60
2023-03-16T08:03:13.955Z,90.40
2023-03-16T08:05:46.180Z,89.00
2023-03-16T08:08:22.716Z,89.20
2023-03-16T08:10:56.614Z,89.80
2023-03-16T08:13:35.460Z,89.30
2023-03-16T08:16:10.393Z,88.80
2023-03-16T08:18:44.563Z,89.40
2023-03-16T08:21:20.285Z,86.60
2023-03-16T08:23:52.270Z,86.10
2023-03-16T08:26:26.548Z,85.00
2023-03-16T08:29:03.531Z,77.10
2023-03-16T08:31:39.776Z,77.10
2023-03-16T08:34:24.614Z,75.90
2023-03-16T08:36:56.805Z,75.70
2023-03-16T08:39:29.111Z,73.00
2023-03-16T08:42:01.401Z,73.10
2023-03-16T08:44:41.426Z,72.70
2023-03-16T08:47:15.017Z,75.00
2023-03-16T08:49:49.508Z,72.50
2023-03-16T08:52:23.150Z,67.80
2023-03-16T08:55:02.834Z,69.20
2023-03-16T08:57:35.752Z,67.00
2023-03-16T09:00:15.296Z,68.20
2023-03-16T09:02:47.946Z,69.40
2023-03-16T09:05:20.042Z,67.30
2023-03-16T09:07:51.825Z,67.40
2023-03-16T09:10:23.742Z,64.20
2023-03-16T09:12:56.743Z,65.70
2023-03-16T09:15:29.229Z,66.30
2023-03-16T09:18:03.840Z,65.10
2023-03-16T09:20:35.887Z,64.90
2023-03-16T09:23:07.945Z,63.10
2023-03-16T09:25:40.043Z,61.30
2023-03-16T09:28:14.503Z,62.50
2023-03-16T09:30:48.350Z,64.20
2023-03-16T09:33:20.687Z,64.70
2023-03-16T09:35:53.284Z,64.20
2023-03-16T09:38:29.193Z,61.60
2023-03-16T09:41:07.458Z,62.80
2023-03-16T09:44:24.267Z,65.00
2023-03-16T09:47:08.136Z,65.80
2023-03-16T09:49:49.135Z,65.40
2023-03-16T09:52:27.352Z,63.50
2023-03-16T09:55:02.774Z,64.20
2023-03-16T09:57:44.996Z,64.00
2023-03-16T10:00:20.608Z,65.50
2023-03-16T10:03:13.740Z,65.80
2023-03-16T10:05:49.511Z,67.60
2023-03-16T10:08:29.164Z,66.90
2023-03-16T10:11:22.909Z,67.20
2023-03-16T10:14:17.705Z,65.70
2023-03-16T10:17:05.810Z,64.80
2023-03-16T10:20:09.170Z,64.20
2023-03-16T10:22:45.507Z,63.70
2023-03-16T10:25:29.566Z,62.90
2023-03-16T10:28:01.570Z,63.70
2023-03-16T10:30:38.770Z,62.50
2023-03-16T10:33:23.677Z,63.30
2023-03-16T10:36:21.477Z,64.10
2023-03-16T10:38:55.400Z,62.70
2023-03-16T10:41:33.700Z,63.10
2023-03-16T10:44:24.692Z,64.00
2023-03-16T10:47:05.823Z,65.10
2023-03-16T10:49:47.145Z,63.50
2023-03-16T10:52:33.284Z,65.10
2023-03-16T10:55:12.068Z,65.50
2023-03-16T10:57:53.644Z,65.70
2023-03-16T11:00:31.051Z,66.80
2023-03-16T11:03:27.546Z,65.10
2023-03-16T11:06:06.339Z,66.30
2023-03-16T11:08:39.910Z,68.40
2023-03-16T11:11:17.955Z,66.20
2023-03-16T11:13:49.746Z,65.00
2023-03-16T11:16:46.765Z,66.90
2023-03-16T11:19:21.942Z,67.50
2023-03-16T11:22:06.763Z,68.70
2023-03-16T11:24:50.443Z,68.80
2023-03-16T11:27:53.166Z,70.40
2023-03-16T11:30:31.065Z,68.40
2023-03-16T11:33:04.260Z,68.10
2023-03-16T11:35:38.401Z,67.20
2023-03-16T11:38:26.686Z,68.20
2023-03-16T11:41:04.844Z,69.50
2023-03-16T11:43:56.937Z,68.50
2023-03-16T11:46:34.825Z,67.70
2023-03-16T11:49:24.793Z,68.90
2023-03-16T11:52:05.280Z,67.90
2023-03-16T11:55:09.146Z,67.80
2023-03-16T11:58:05.811Z,69.20
2023-03-16T12:00:46.741Z,67.00
2023-03-16T12:03:25.929Z,66.20
2023-03-16T12:06:02.016Z,66.10
2023-03-16T12:09:07.953Z,66.20
2023-03-16T12:12:05.143Z,67.40
2023-03-16T12:14:46.748Z,67.80
2023-03-16T12:17:30.546Z,68.60
2023-03-16T12:20:47.486Z,66.90
2023-03-16T12:23:27.904Z,68.60
2023-03-16T12:26:03.732Z,68.50
2023-03-16T12:28:37.307Z,67.60
2023-03-16T12:31:34.720Z,67.40
2023-03-16T12:34:30.799Z,68.80
2023-03-16T12:37:27.558Z,67.50
2023-03-16T12:40:15.830Z,67.10
2023-03-16T12:42:59.182Z,68.90
2023-03-16T12:45:51.818Z,67.60
2023-03-16T12:48:36.833Z,69.30
2023-03-16T12:51:08.794Z,69.50
2023-03-16T12:53:43.447Z,68.00
2023-03-16T12:56:18.750Z,67.80
2023-03-16T12:58:51.418Z,66.50
2023-03-16T13:01:37.625Z,67.90
2023-03-16T13:04:14.863Z,68.50
2023-03-16T13:06:53.796Z,68.30
2023-03-16T13:09:28.515Z,69.10
2023-03-16T13:12:05.130Z,67.10
2023-03-16T13:14:42.687Z,66.60
2023-03-16T13:17:17.636Z,66.90
2023-03-16T13:20:29.623Z,66.40
2023-03-16T13:23:24.103Z,66.40
2023-03-16T13:26:17.982Z,65.80
2023-03-16T13:28:55.102Z,66.70
2023-03-16T13:31:41.382Z,68.00
2023-03-16T13:34:22.836Z,67.90
2023-03-16T13:36:58.021Z,67.70
2023-03-16T13:39:31.771Z,67.80
2023-03-16T13:42:20.191Z,66.20
2023-03-16T13:44:57.879Z,67.60
2023-03-16T13:47:29.742Z,68.30
2023-03-16T13:50:01.643Z,67.20
2023-03-16T13:52:35.475Z,68.20
2023-03-16T13:55:18.231Z,68.00
2023-03-16T13:57:50.268Z,67.30
2023-03-16T14:00:32.743Z,66.90
2023-03-16T14:03:17.877Z,67.30
2023-03-16T14:05:49.864Z,66.60
2023-03-16T14:08:26.303Z,66.80
2023-03-16T14:11:01.197Z,65.80
2023-03-16T14:13:38.411Z,66.70
2023-03-16T14:16:16.653Z,67.30
2023-03-16T14:19:17.037Z,66.60
2023-03-16T14:21:49.716Z,67.00
2023-03-16T14:24:30.973Z,66.90
2023-03-16T14:27:17.946Z,68.20
2023-03-16T14:29:59.076Z,66.40
2023-03-16T14:32:33.704Z,67.40
2023-03-16T14:35:33.547Z,67.90
2023-03-16T14:38:36.199Z,67.30
2023-03-16T14:41:28.208Z,68.40
2023-03-16T14:44:01.679Z,68.90
2023-03-16T14:46:40.531Z,68.00
2023-03-16T14:49:33.295Z,68.30
2023-03-16T14:52:10.776Z,67.50
2023-03-16T14:54:43.802Z,67.90
2023-03-16T14:57:19.624Z,67.10
2023-03-16T14:59:52.222Z,68.10
2023-03-16T15:02:31.356Z,68.00
2023-03-16T15:05:03.888Z,68.30
2023-03-16T15:07:41.279Z,68.30
2023-03-16T15:10:16.096Z,67.70
2023-03-16T15:12:54.185Z,67.60
2023-03-16T15:15:29.305Z,67.70
2023-03-16T15:18:01.461Z,68.40
2023-03-16T15:20:38.774Z,67.80
2023-03-16T15:23:16.384Z,68.50
2023-03-16T15:25:49.534Z,70.40
2023-03-16T15:28:23.682Z,71.00
2023-03-16T15:30:58.385Z,71.50
2023-03-16T15:33:31.636Z,70.50
2023-03-16T15:36:19.883Z,70.90
2023-03-16T15:38:54.334Z,71.30
2023-03-16T15:41:30.148Z,71.10
2023-03-16T15:44:12.277Z,71.50
2023-03-16T15:46:44.516Z,72.10
2023-03-16T15:49:17.101Z,71.80
2023-03-16T15:51:56.492Z,71.90
2023-03-16T15:54:29.412Z,71.80
2023-03-16T15:57:05.758Z,71.50
2023-03-16T15:59:38.259Z,71.50
2023-03-16T16:02:32.235Z,72.00
2023-03-16T16:05:05.997Z,71.50
2023-03-16T16:07:37.851Z,72.50
2023-03-16T16:10:13.385Z,73.30
2023-03-16T16:12:51.541Z,73.60
2023-03-16T16:15:29.422Z,73.50
2023-03-16T16:18:20.791Z,73.10
2023-03-16T16:20:53.909Z,73.20
2023-03-16T16:23:26.711Z,73.60
2023-03-16T16:26:12.713Z,73.90
2023-03-16T16:28:44.900Z,73.70
2023-03-16T16:31:17.107Z,74.20
2023-03-16T16:33:50.005Z,74.50
2023-03-16T16:36:22.124Z,75.50
2023-03-16T16:38:57.006Z,75.80
2023-03-16T16:41:32.002Z,76.30
2023-03-16T16:44:10.959Z,76.40
2023-03-16T16:46:43.872Z,77.00
2023-03-16T16:49:25.860Z,77.70
2023-03-16T16:51:58.590Z,77.90
2023-03-16T16:54:31.676Z,79.10
2023-03-16T16:57:03.951Z,79.10
2023-03-16T16:59:37.801Z,79.40
2023-03-16T17:02:31.926Z,80.00
2023-03-16T17:05:03.901Z,80.10
2023-03-16T17:07:36.174Z,80.70
2023-03-16T17:10:15.988Z,80.80
2023-03-16T17:12:53.059Z,81.10
2023-03-16T17:15:29.214Z,81.70
2023-03-16T17:18:10.873Z,81.50
2023-03-16T17:20:42.715Z,81.70
2023-03-16T17:23:31.223Z,81.80
2023-03-16T17:26:13.737Z,82.70
2023-03-16T17:28:55.632Z,83.00
2023-03-16T17:31:32.797Z,83.90
2023-03-16T17:34:20.936Z,83.40
2023-03-16T17:36:53.702Z,84.60
2023-03-16T17:39:31.089Z,84.50
2023-03-16T17:42:10.943Z,85.00
2023-03-16T17:44:46.345Z,86.70
2023-03-16T17:47:24.386Z,87.50
2023-03-16T17:49:57.044Z,87.80
2023-03-16T17:52:29.853Z,87.80
2023-03-16T17:55:03.535Z,87.70
2023-03-16T17:57:36.337Z,88.20
2023-03-16T18:00:30.298Z,88.00
2023-03-16T18:03:13.708Z,89.30
2023-03-16T18:05:46.364Z,89.00
2023-03-16T18:08:26.527Z,88.80
2023-03-16T18:11:01.409Z,89.20
2023-03-16T18:13:38.856Z,89.60
2023-03-16T18:16:16.578Z,89.90
2023-03-16T18:18:49.585Z,90.10
2023-03-16T18:21:23.447Z,90.30
2023-03-16T18:23:55.939Z,90.80
2023-03-16T18:26:28.164Z,91.10
2023-03-16T18:29:00.029Z,91.30
2023-03-16T18:31:32.044Z,91.50
2023-03-16T18:34:06.527Z,91.10
2023-03-16T18:36:39.719Z,90.90
2023-03-16T18:39:19.326Z,91.60
2023-03-16T18:41:51.355Z,91.60
2023-03-16T18:44:25.981Z,92.20
2023-03-16T18:47:03.471Z,92.10
2023-03-16T18:49:36.944Z,92.10
2023-03-16T18:52:24.343Z,91.80
2023-03-16T18:54:57.760Z,92.20
2023-03-16T18:57:31.752Z,91.90
2023-03-16T19:00:04.124Z,92.00
2023-03-16T19:02:43.807Z,92.50
2023-03-16T19:05:21.589Z,92.60
2023-03-16T19:07:54.656Z,96.10
2023-03-16T19:10:30.634Z,93.70
2023-03-16T19:13:03.126Z,93.40
2023-03-16T19:15:35.690Z,93.20
2023-03-16T19:18:08.023Z,93.30
2023-03-16T19:20:42.680Z,93.50
2023-03-16T19:23:28.627Z,94.10
2023-03-16T19:26:00.499Z,93.90
2023-03-16T19:28:41.657Z,94.00
2023-03-16T19:31:26.111Z,94.40
2023-03-16T19:33:58.575Z,94.40
2023-03-16T19:36:32.308Z,94.40
2023-03-16T19:39:04.428Z,94.40
2023-03-16T19:41:37.975Z,94.50
2023-03-16T19:44:22.314Z,94.80
2023-03-16T19:46:55.068Z,94.60
2023-03-16T19:49:31.254Z,94.70
2023-03-16T19:52:06.124Z,94.80
2023-03-16T19:54:40.468Z,94.60
2023-03-16T19:57:16.019Z,94.40
2023-03-16T19:59:55.493Z,94.30
2023-03-16T20:02:38.276Z,94.20
2023-03-16T20:05:17.769Z,94.40
2023-03-16T20:07:50.022Z,94.40
2023-03-16T20:10:24.945Z,94.60
2023-03-16T20:12:59.355Z,94.60
2023-03-16T20:15:33.642Z,94.80
2023-03-16T20:18:13.622Z,95.00
2023-03-16T20:20:46.869Z,95.10
2023-03-16T20:23:24.443Z,95.00
2023-03-16T20:26:02.647Z,95.20
2023-03-16T20:28:40.045Z,95.30
2023-03-16T20:31:27.061Z,95.40
2023-03-16T20:33:59.037Z,95.60
2023-03-16T20:36:31.146Z,95.80
2023-03-16T20:39:03.146Z,95.90
2023-03-16T20:41:36.738Z,96.20
2023-03-16T20:44:14.349Z,95.90
2023-03-16T20:46:46.954Z,95.70
2023-03-16T20:49:21.565Z,96.00
2023-03-16T20:51:54.095Z,96.90
2023-03-16T20:54:27.310Z,96.30
2023-03-16T20:57:00.387Z,95.90
2023-03-16T20:59:33.806Z,96.00
2023-03-16T21:02:27.213Z,96.30
2023-03-16T21:05:00.419Z,96.10
2023-03-16T21:07:32.458Z,96.10
2023-03-16T21:10:04.787Z,96.50
2023-03-16T21:12:42.224Z,96.40
2023-03-16T21:15:24.901Z,96.40
2023-03-16T21:17:56.724Z,96.40
2023-03-16T21:20:32.024Z,96.40
2023-03-16T21:23:04.336Z,96.30
2023-03-16T21:26:00.727Z,96.40
2023-03-16T21:28:34.598Z,96.60
2023-03-16T21:31:06.764Z,96.80
2023-03-16T21:33:41.898Z,97.10
2023-03-16T21:36:16.939Z,97.00
2023-03-16T21:38:50.183Z,97.00
2023-03-16T21:41:22.899Z,96.90
2023-03-16T21:43:55.010Z,96.90
2023-03-16T21:46:27.144Z,96.80
2023-03-16T21:48:59.094Z,97.20
2023-03-16T21:51:31.512Z,97.10
2023-03-16T21:54:03.904Z,97.20
2023-03-16T21:56:36.243Z,96.60
2023-03-16T21:59:08.359Z,96.50
2023-03-16T22:01:54.634Z,96.50
2023-03-16T22:04:32.965Z,96.40
2023-03-16T22:07:12.845Z,96.20
2023-03-16T22:09:44.658Z,95.90
2023-03-16T22:12:18.469Z,96.10
2023-03-16T22:14:50.481Z,96.10
2023-03-16T22:17:22.644Z,96.30
2023-03-16T22:19:54.496Z,96.00
2023-03-16T22:22:28.282Z,96.00
2023-03-16T22:25:00.180Z,95.90
2023-03-16T22:27:32.146Z,96.20
2023-03-16T22:30:04.606Z,96.00
2023-03-16T22:32:36.444Z,96.00
2023-03-16T22:35:27.368Z,96.10
2023-03-16T22:38:01.989Z,96.30
2023-03-16T22:40:39.143Z,96.40
2023-03-16T22:43:21.903Z,96.20
2023-03-16T22:45:56.542Z,96.50
2023-03-16T22:48:30.299Z,95.50
2023-03-16T22:51:04.815Z,95.60
2023-03-16T22:53:40.664Z,96.50
2023-03-16T22:56:13.102Z,97.00
2023-03-16T22:58:56.252Z,96.70
2023-03-16T23:01:37.594Z,96.80
2023-03-16T23:04:24.733Z,96.90
2023-03-16T23:06:57.417Z,97.10
2023-03-16T23:09:29.782Z,97.30
2023-03-16T23:12:03.248Z,97.20
2023-03-16T23:14:37.620Z,97.20
2023-03-16T23:17:22.174Z,97.30
2023-03-16T23:19:54.571Z,97.00
2023-03-16T23:22:26.524Z,97.20
2023-03-16T23:24:58.370Z,97.80
2023-03-16T23:27:30.210Z,97.80
2023-03-16T23:30:04.245Z,97.80
2023-03-16T23:32:36.157Z,97.70
2023-03-16T23:35:17.431Z,97.50
2023-03-16T23:37:50.676Z,97.70
2023-03-16T23:40:25.843Z,97.60
2023-03-16T23:43:00.661Z,97.50
2023-03-16T23:45:43.253Z,97.60
2023-03-16T23:48:20.647Z,97.80
2023-03-16T23:50:55.026Z,97.70
2023-03-16T23:53:26.982Z,97.70
2023-03-16T23:55:59.859Z,98.10
2023-03-16T23:58:31.628Z,98.20
